Time;durP1;ratioP1;P1;durP2;ratioP2;P2;SDS_P1;SDS_P2;PMS_P1;PMS_P2;Temp;Humidity;BMP_temperature;BMP_pressure;BME280_temperature;BME280_humidity;BME280_pressure;Samples;Min_cycle;Max_cycle;Signal;HPM_P1;HPM_P2
2021/06/15 00:00:34;;;;;;;7.18;6.03;;;21.60;93.40;;;;;;2055241;28;20030;-70
2021/06/15 00:01:35;;;;;;;7.75;6.22;;;21.60;93.50;;;;;;2054351;28;20433;-70
2021/06/15 00:02:35;;;;;;;7.45;5.25;;;21.60;93.30;;;;;;2054417;28;20032;-70
2021/06/15 00:03:36;;;;;;;6.72;5.63;;;21.50;92.70;;;;;;2048847;28;20066;-69
2021/06/15 00:04:36;;;;;;;6.82;5.97;;;21.50;93.20;;;;;;2054847;28;20061;-70
2021/06/15 00:05:37;;;;;;;11.63;6.07;;;21.40;93.50;;;;;;2055638;28;20031;-70
2021/06/15 00:06:38;;;;;;;11.57;5.80;;;21.40;93.70;;;;;;2055114;28;20371;-69
2021/06/15 00:07:40;;;;;;;6.20;5.60;;;21.40;93.80;;;;;;2055426;28;20092;-70
2021/06/15 00:08:40;;;;;;;10.98;6.30;;;21.40;94.20;;;;;;2055094;28;20031;-69
2021/06/15 00:09:41;;;;;;;7.90;5.60;;;21.40;94.30;;;;;;2054865;28;20034;-69
2021/06/15 00:10:42;;;;;;;8.38;5.05;;;21.40;93.20;;;;;;2055193;28;20076;-70
2021/06/15 00:11:43;;;;;;;6.70;4.80;;;21.30;92.80;;;;;;2054913;28;20039;-70
2021/06/15 00:12:44;;;;;;;7.60;6.05;;;21.30;91.60;;;;;;2055131;28;20041;-69
2021/06/15 00:13:44;;;;;;;7.28;5.75;;;21.30;92.10;;;;;;2055511;28;20490;-69
2021/06/15 00:14:45;;;;;;;7.65;6.13;;;21.30;92.70;;;;;;2054739;28;20053;-69
2021/06/15 00:15:47;;;;;;;5.80;5.07;;;21.30;93.40;;;;;;2054010;28;20023;-69
2021/06/15 00:16:48;;;;;;;8.02;5.57;;;21.30;92.70;;;;;;2055078;28;20379;-69
2021/06/15 00:17:49;;;;;;;6.13;5.53;;;21.30;92.70;;;;;;2055109;28;20026;-69
2021/06/15 00:18:50;;;;;;;5.95;5.25;;;21.20;92.80;;;;;;2055329;28;20031;-70
2021/06/15 00:19:50;;;;;;;6.70;4.70;;;21.20;92.70;;;;;;2055376;28;20094;-70
2021/06/15 00:20:51;;;;;;;9.50;5.97;;;21.20;91.80;;;;;;2055026;28;20651;-69
2021/06/15 00:21:52;;;;;;;10.48;6.18;;;21.10;93.10;;;;;;2054515;28;20019;-69
2021/06/15 00:22:53;;;;;;;8.57;5.90;;;21.10;94.30;;;;;;2055175;28;20042;-69
2021/06/15 00:23:53;;;;;;;12.73;6.53;;;21.10;94.50;;;;;;2055230;28;20030;-69
2021/06/15 00:24:54;;;;;;;12.00;6.75;;;21.10;95.10;;;;;;2054910;28;20023;-69
2021/06/15 00:25:54;;;;;;;7.10;5.68;;;21.10;94.90;;;;;;2054922;28;20541;-70
2021/06/15 00:26:55;;;;;;;6.95;6.22;;;21.00;95.20;;;;;;2055409;28;20091;-69
2021/06/15 00:27:55;;;;;;;10.35;6.28;;;21.00;95.70;;;;;;2055169;28;20112;-69
2021/06/15 00:28:56;;;;;;;7.72;6.10;;;21.00;95.90;;;;;;2055078;28;20038;-69
2021/06/15 00:29:57;;;;;;;7.63;6.32;;;21.00;96.00;;;;;;2054892;28;20027;-70
2021/06/15 00:30:59;;;;;;;11.68;6.45;;;20.90;96.00;;;;;;2055194;28;20428;-69
2021/06/15 00:31:59;;;;;;;9.15;5.82;;;20.90;96.30;;;;;;2054575;28;20437;-69
2021/06/15 00:33:00;;;;;;;7.47;5.70;;;20.90;96.50;;;;;;2055123;28;20133;-69
2021/06/15 00:34:01;;;;;;;8.48;6.25;;;20.80;96.50;;;;;;2054749;28;20102;-69
2021/06/15 00:35:02;;;;;;;9.55;6.07;;;20.80;96.40;;;;;;2054639;28;20121;-69
2021/06/15 00:36:03;;;;;;;6.47;5.80;;;20.80;97.00;;;;;;2096533;28;20017;-69
2021/06/15 00:37:03;;;;;;;7.00;5.90;;;20.80;97.10;;;;;;2075471;28;20031;-69
2021/06/15 00:38:04;;;;;;;8.55;6.93;;;20.70;96.60;;;;;;2055231;28;20033;-69
2021/06/15 00:39:05;;;;;;;7.40;6.40;;;20.70;96.60;;;;;;2055033;28;20135;-69
2021/06/15 00:40:07;;;;;;;6.35;5.75;;;20.70;97.00;;;;;;2054539;28;20038;-70
2021/06/15 00:41:07;;;;;;;7.28;5.82;;;20.70;96.40;;;;;;2055053;28;20054;-69
2021/06/15 00:42:08;;;;;;;5.85;5.25;;;20.70;97.00;;;;;;2054403;28;20030;-69
2021/06/15 00:43:09;;;;;;;6.57;5.43;;;20.60;95.20;;;;;;2055177;28;20072;-69
2021/06/15 00:44:10;;;;;;;7.97;6.32;;;20.60;96.30;;;;;;2055006;28;20113;-69
2021/06/15 00:45:13;;;;;;;9.65;5.45;;;20.60;96.50;;;;;;2055093;28;20415;-69
2021/06/15 00:46:14;;;;;;;9.43;6.10;;;20.60;96.60;;;;;;2055015;28;20015;-69
2021/06/15 00:47:15;;;;;;;6.57;5.90;;;20.50;96.70;;;;;;2054609;28;20076;-70
2021/06/15 00:48:27;;;;;;;8.25;6.45;;;20.50;96.70;;;;;;2054933;28;20050;-69
2021/06/15 00:49:32;;;;;;;7.50;6.25;;;20.50;97.00;;;;;;2055025;28;20463;-69
2021/06/15 00:50:34;;;;;;;7.20;6.50;;;20.50;97.70;;;;;;2054573;28;20134;-69
2021/06/15 00:51:36;;;;;;;9.05;6.10;;;20.40;96.70;;;;;;2054423;28;20610;-69
2021/06/15 00:52:37;;;;;;;9.38;7.40;;;20.40;97.80;;;;;;2054780;28;20066;-69
2021/06/15 00:53:38;;;;;;;7.32;6.63;;;20.40;98.20;;;;;;2054935;28;20022;-69
2021/06/15 00:54:38;;;;;;;7.10;6.40;;;20.40;98.30;;;;;;2054865;28;20027;-69
2021/06/15 00:55:39;;;;;;;9.10;6.97;;;20.40;97.60;;;;;;2054756;28;20037;-69
2021/06/15 00:56:39;;;;;;;8.68;6.80;;;20.40;97.90;;;;;;2054922;28;20410;-69
2021/06/15 00:57:40;;;;;;;7.95;6.40;;;20.30;98.00;;;;;;2055016;28;20023;-69
2021/06/15 00:58:40;;;;;;;9.30;6.80;;;20.30;98.40;;;;;;2054989;28;20021;-69
2021/06/15 00:59:41;;;;;;;9.30;7.20;;;20.30;98.30;;;;;;2054795;28;20034;-69
2021/06/15 01:00:41;;;;;;;7.88;7.03;;;20.30;98.00;;;;;;2055089;28;20023;-69
2021/06/15 01:01:42;;;;;;;8.68;6.40;;;20.30;98.30;;;;;;2054219;28;20106;-69
2021/06/15 01:02:43;;;;;;;8.55;6.22;;;20.20;97.00;;;;;;2054586;28;20031;-70
2021/06/15 01:03:44;;;;;;;10.30;7.50;;;20.20;96.70;;;;;;2054563;28;20037;-69
2021/06/15 01:04:45;;;;;;;8.60;7.60;;;20.20;98.10;;;;;;2050208;28;20028;-69
2021/06/15 01:05:46;;;;;;;7.22;6.50;;;20.20;98.70;;;;;;2053100;28;20145;-69
2021/06/15 01:07:18;;;;;;;10.82;7.72;;;20.10;98.80;;;;;;2054559;28;20062;-69
2021/06/15 01:08:38;;;;;;;9.55;6.88;;;20.10;99.30;;;;;;2054041;28;20046;-69
2021/06/15 01:09:59;;;;;;;11.30;6.88;;;20.00;99.60;;;;;;2055022;28;20118;-69
2021/06/15 01:11:12;;;;;;;9.43;6.47;;;20.00;99.30;;;;;;2054561;28;20080;-69
2021/06/15 01:12:35;;;;;;;9.82;6.97;;;20.00;99.00;;;;;;2054477;28;20033;-69
2021/06/15 01:13:54;;;;;;;8.05;5.65;;;19.90;99.70;;;;;;2055161;28;20152;-69
2021/06/15 01:15:12;;;;;;;9.23;6.97;;;19.90;98.90;;;;;;2054664;28;20467;-70
2021/06/15 01:16:32;;;;;;;8.45;7.32;;;19.90;98.10;;;;;;2054873;28;20023;-69
2021/06/15 01:17:40;;;;;;;12.52;7.63;;;19.90;99.90;;;;;;2054590;28;20081;-69
2021/06/15 01:18:54;;;;;;;7.90;6.70;;;19.80;99.90;;;;;;2055001;28;20023;-70
2021/06/15 01:20:16;;;;;;;7.68;6.35;;;19.80;99.90;;;;;;2054431;28;20014;-69
2021/06/15 01:21:19;;;;;;;12.40;7.07;;;19.80;99.90;;;;;;2048333;28;20035;-69
2021/06/15 01:22:41;;;;;;;9.55;7.22;;;19.80;99.90;;;;;;2051975;28;20360;-69
2021/06/15 01:23:41;;;;;;;8.85;6.72;;;19.80;99.90;;;;;;2054663;28;20046;-69
2021/06/15 01:25:11;;;;;;;7.25;6.07;;;19.70;99.90;;;;;;2054852;28;20023;-69
2021/06/15 01:26:45;;;;;;;6.82;5.53;;;19.70;99.90;;;;;;2089814;28;20045;-69
2021/06/15 01:27:45;;;;;;;7.25;6.55;;;19.70;99.40;;;;;;2053054;28;20031;-69
2021/06/15 01:28:52;;;;;;;7.63;6.72;;;19.60;99.30;;;;;;2054502;28;20065;-69
2021/06/15 01:29:56;;;;;;;8.70;7.15;;;19.60;99.90;;;;;;2053160;28;20343;-69
2021/06/15 01:31:15;;;;;;;11.98;7.30;;;19.60;99.90;;;;;;2054527;28;20027;-69
2021/06/15 01:32:24;;;;;;;8.57;7.70;;;19.60;99.90;;;;;;2049839;28;20407;-69
2021/06/15 01:33:26;;;;;;;8.15;7.35;;;19.50;99.90;;;;;;2054756;28;20058;-69
2021/06/15 01:34:31;;;;;;;8.43;7.10;;;19.50;99.90;;;;;;2054409;28;20019;-69
2021/06/15 01:35:33;;;;;;;9.68;7.15;;;19.50;99.90;;;;;;2053035;28;20104;-70
2021/06/15 01:36:50;;;;;;;9.23;7.03;;;19.50;99.90;;;;;;2054863;28;20027;-69
2021/06/15 01:38:01;;;;;;;7.88;6.88;;;19.50;99.90;;;;;;2054641;28;20026;-69
2021/06/15 01:39:08;;;;;;;7.82;6.18;;;19.50;99.90;;;;;;2054742;28;20053;-69
2021/06/15 01:40:14;;;;;;;9.45;7.55;;;19.50;99.90;;;;;;2054733;28;20080;-69
2021/06/15 01:41:18;;;;;;;9.25;7.20;;;19.50;99.90;;;;;;2056008;28;20903;-69
2021/06/15 01:42:21;;;;;;;8.63;7.40;;;19.50;99.90;;;;;;2048179;28;20032;-69
2021/06/15 01:43:27;;;;;;;8.52;7.57;;;19.40;99.90;;;;;;2046806;29;20023;-69
2021/06/15 01:44:31;;;;;;;10.07;7.55;;;19.50;99.90;;;;;;2051276;28;20498;-69
2021/06/15 01:45:36;;;;;;;8.30;7.05;;;19.40;99.90;;;;;;2046319;28;20023;-69
2021/06/15 01:46:54;;;;;;;7.40;6.53;;;19.40;99.90;;;;;;2053262;28;20047;-69
2021/06/15 01:48:17;;;;;;;8.95;6.13;;;19.40;99.90;;;;;;2046408;28;20095;-70
2021/06/15 01:49:20;;;;;;;6.97;6.28;;;19.30;99.90;;;;;;2046678;29;20036;-69
2021/06/15 01:50:22;;;;;;;7.60;5.75;;;19.30;99.90;;;;;;2051472;28;20038;-69
2021/06/15 01:51:24;;;;;;;9.00;7.78;;;19.30;99.90;;;;;;2054373;28;20064;-69
2021/06/15 01:52:31;;;;;;;12.15;8.15;;;19.30;99.90;;;;;;2069788;28;20037;-69
2021/06/15 01:53:34;;;;;;;10.90;8.13;;;19.30;99.90;;;;;;2068065;28;20112;-70
2021/06/15 01:54:37;;;;;;;8.18;7.30;;;19.30;99.90;;;;;;2053667;28;20363;-69
2021/06/15 01:55:44;;;;;;;9.27;6.85;;;19.30;99.90;;;;;;2054490;28;20046;-70
2021/06/15 01:56:45;;;;;;;12.90;7.85;;;19.30;99.90;;;;;;2054230;28;20011;-69
2021/06/15 01:57:46;;;;;;;8.23;7.25;;;19.30;99.90;;;;;;2054792;28;20310;-69
2021/06/15 01:58:48;;;;;;;8.82;6.90;;;19.30;99.90;;;;;;2054491;28;20498;-69
2021/06/15 01:59:50;;;;;;;6.95;6.30;;;19.30;99.90;;;;;;2054560;28;20038;-69
2021/06/15 02:00:52;;;;;;;7.93;6.15;;;19.20;99.90;;;;;;2055210;28;20108;-69
2021/06/15 02:01:57;;;;;;;9.50;7.10;;;19.30;99.90;;;;;;2053740;28;20505;-69
2021/06/15 02:03:00;;;;;;;8.82;7.13;;;19.20;99.90;;;;;;2055656;28;20356;-70
2021/06/15 02:04:03;;;;;;;6.70;6.10;;;19.20;99.90;;;;;;2055745;28;20073;-69
2021/06/15 02:05:07;;;;;;;6.18;5.68;;;19.20;99.90;;;;;;2055201;28;20552;-69
2021/06/15 02:06:09;;;;;;;6.18;5.57;;;19.20;99.90;;;;;;2055964;28;20035;-69
2021/06/15 02:07:15;;;;;;;7.55;5.95;;;19.20;99.90;;;;;;2055504;28;20126;-69
2021/06/15 02:08:43;;;;;;;7.72;5.60;;;19.20;99.90;;;;;;2055037;28;20031;-69
2021/06/15 02:09:49;;;;;;;9.60;7.35;;;19.10;99.90;;;;;;2054516;28;20062;-69
2021/06/15 02:10:51;;;;;;;10.38;7.68;;;19.10;99.90;;;;;;2055578;28;20026;-69
2021/06/15 02:11:52;;;;;;;10.98;7.60;;;19.10;99.90;;;;;;2055142;28;20031;-69
2021/06/15 02:12:54;;;;;;;8.48;6.75;;;19.10;99.90;;;;;;2055389;28;20037;-69
2021/06/15 02:13:59;;;;;;;8.68;7.40;;;19.10;99.90;;;;;;2055085;28;20023;-69
2021/06/15 02:15:01;;;;;;;9.38;7.35;;;19.10;99.90;;;;;;2048328;28;20028;-69
2021/06/15 02:16:03;;;;;;;8.10;6.70;;;19.10;99.90;;;;;;2051599;28;20443;-69
2021/06/15 02:17:06;;;;;;;8.00;7.20;;;19.10;99.90;;;;;;2055721;28;20038;-69
2021/06/15 02:18:08;;;;;;;10.02;7.93;;;19.10;99.90;;;;;;2055819;28;20488;-69
2021/06/15 02:19:10;;;;;;;8.20;7.10;;;19.10;99.90;;;;;;2055631;28;20636;-70
2021/06/15 02:20:13;;;;;;;8.77;7.50;;;19.10;99.90;;;;;;2055933;28;20027;-70
2021/06/15 02:21:15;;;;;;;8.30;7.20;;;19.10;99.90;;;;;;2055456;28;20033;-69
2021/06/15 02:22:19;;;;;;;8.45;7.20;;;19.10;99.90;;;;;;2055332;28;20018;-69
2021/06/15 02:23:22;;;;;;;12.25;8.65;;;19.10;99.90;;;;;;2055462;28;20054;-69
2021/06/15 02:24:32;;;;;;;8.60;6.63;;;19.00;99.90;;;;;;2055275;28;20031;-69
2021/06/15 02:25:37;;;;;;;7.75;6.40;;;19.00;99.90;;;;;;2053740;28;20031;-69
2021/06/15 02:26:40;;;;;;;8.85;6.93;;;19.00;99.90;;;;;;2054990;28;20403;-69
2021/06/15 02:27:41;;;;;;;7.25;6.35;;;19.00;99.90;;;;;;2060608;28;20022;-69
2021/06/15 02:28:42;;;;;;;14.30;8.10;;;19.00;99.90;;;;;;2077135;28;20444;-69
2021/06/15 02:29:43;;;;;;;9.50;7.45;;;19.00;99.90;;;;;;2082394;28;20688;-69
2021/06/15 02:30:44;;;;;;;8.30;7.53;;;19.00;99.90;;;;;;2068287;28;20027;-69
2021/06/15 02:31:54;;;;;;;10.90;7.55;;;19.00;99.90;;;;;;2055032;28;20023;-69
2021/06/15 02:33:00;;;;;;;;;;;19.00;99.90;;;;;;2056013;28;20022;-69
2021/06/15 02:34:07;;;;;;;7.78;7.00;;;18.90;99.90;;;;;;2055011;28;19925;-69
2021/06/15 02:35:10;;;;;;;8.13;7.25;;;18.90;99.90;;;;;;2055462;28;20026;-69
2021/06/15 02:36:14;;;;;;;10.20;7.88;;;18.90;99.90;;;;;;2055609;28;20057;-69
2021/06/15 02:37:23;;;;;;;13.23;9.82;;;18.90;99.90;;;;;;2055692;28;20057;-69
2021/06/15 02:38:37;;;;;;;16.35;10.63;;;18.90;99.90;;;;;;2054938;28;20030;-69
2021/06/15 02:39:39;;;;;;;15.52;10.10;;;18.90;99.90;;;;;;2055578;28;20061;-69
2021/06/15 02:40:40;;;;;;;13.45;9.25;;;18.90;99.90;;;;;;2055283;28;20092;-69
2021/06/15 02:41:43;;;;;;;11.93;9.07;;;18.90;99.90;;;;;;2054928;28;20027;-69
2021/06/15 02:42:45;;;;;;;9.32;8.07;;;18.90;99.90;;;;;;2055436;28;20047;-69
2021/06/15 02:43:56;;;;;;;11.00;8.55;;;18.90;99.90;;;;;;2055369;28;20042;-69
2021/06/15 02:44:59;;;;;;;9.98;7.63;;;18.90;99.90;;;;;;2055570;28;20027;-69
2021/06/15 02:46:00;;;;;;;10.73;9.43;;;18.90;99.90;;;;;;2055591;28;20045;-69
2021/06/15 02:47:02;;;;;;;11.50;8.80;;;18.90;99.90;;;;;;2054903;28;20042;-69
2021/06/15 02:48:06;;;;;;;14.13;8.27;;;18.90;99.90;;;;;;2054883;28;20560;-69
2021/06/15 02:49:14;;;;;;;13.55;8.60;;;18.90;99.90;;;;;;2055517;28;20027;-69
2021/06/15 02:50:17;;;;;;;14.00;9.90;;;18.90;99.90;;;;;;2055200;28;20026;-69
2021/06/15 02:51:18;;;;;;;12.43;9.35;;;18.90;99.90;;;;;;2055575;28;20038;-69
2021/06/15 02:52:45;;;;;;;10.00;9.02;;;18.90;99.90;;;;;;2054665;28;20171;-69
2021/06/15 02:54:12;;;;;;;12.75;8.32;;;18.80;99.90;;;;;;2055240;28;20023;-69
2021/06/15 02:55:20;;;;;;;8.63;7.72;;;18.80;99.90;;;;;;2053937;28;20059;-69
2021/06/15 02:56:22;;;;;;;8.95;7.18;;;18.80;99.90;;;;;;2054840;28;20026;-69
2021/06/15 02:57:25;;;;;;;11.05;8.23;;;18.80;99.90;;;;;;2055464;28;20031;-69
2021/06/15 02:58:27;;;;;;;8.88;7.85;;;18.80;99.90;;;;;;2057530;28;20382;-69
2021/06/15 02:59:28;;;;;;;11.00;8.82;;;18.70;99.90;;;;;;2061820;28;20023;-69
2021/06/15 03:00:29;;;;;;;12.10;8.10;;;18.80;99.90;;;;;;2055271;28;20030;-69
2021/06/15 03:01:29;;;;;;;9.43;8.43;;;18.80;99.90;;;;;;2054404;28;20094;-69
2021/06/15 03:02:30;;;;;;;9.95;8.32;;;18.80;99.90;;;;;;2054566;28;20374;-69
2021/06/15 03:03:31;;;;;;;16.50;12.20;;;18.80;99.90;;;;;;2054215;28;20015;-69
2021/06/15 03:04:31;;;;;;;14.45;11.55;;;18.80;99.90;;;;;;2054275;28;20065;-69
2021/06/15 03:05:33;;;;;;;14.68;10.43;;;18.80;99.90;;;;;;2054199;28;20031;-69
2021/06/15 03:06:33;;;;;;;11.05;9.57;;;18.80;99.90;;;;;;2053760;28;20076;-69
2021/06/15 03:07:35;;;;;;;10.93;9.63;;;18.80;99.90;;;;;;2053458;28;20030;-69
2021/06/15 03:08:36;;;;;;;12.32;11.00;;;18.70;99.90;;;;;;2045645;28;20491;-69
2021/06/15 03:09:36;;;;;;;13.27;9.00;;;18.80;99.90;;;;;;2053300;28;20464;-69
2021/06/15 03:10:37;;;;;;;13.23;9.25;;;18.80;99.90;;;;;;2054223;28;20030;-69
2021/06/15 03:11:44;;;;;;;11.65;9.32;;;18.80;99.90;;;;;;2053582;28;20158;-69
2021/06/15 03:13:13;;;;;;;14.20;9.63;;;18.80;99.90;;;;;;2054196;28;20491;-69
2021/06/15 03:14:28;;;;;;;10.80;9.70;;;18.80;99.90;;;;;;2053491;28;20118;-69
2021/06/15 03:15:43;;;;;;;16.73;12.07;;;18.70;99.90;;;;;;2054056;28;20057;-69
2021/06/15 03:16:44;;;;;;;16.75;13.18;;;18.70;99.90;;;;;;2054368;28;20042;-69
2021/06/15 03:17:51;;;;;;;13.55;10.27;;;18.70;99.90;;;;;;2053698;28;20023;-69
2021/06/15 03:19:02;;;;;;;11.80;9.23;;;18.70;99.90;;;;;;2054283;28;20030;-69
2021/06/15 03:20:07;;;;;;;12.35;9.10;;;18.80;99.90;;;;;;2054118;28;20030;-69
2021/06/15 03:21:17;;;;;;;15.73;13.02;;;18.70;99.90;;;;;;2054183;28;20027;-69
2021/06/15 03:22:22;;;;;;;16.73;12.38;;;18.70;99.90;;;;;;2053341;28;20072;-69
2021/06/15 03:23:54;;;;;;;17.27;14.25;;;18.70;99.90;;;;;;2053904;28;20027;-69
2021/06/15 03:25:04;;;;;;;16.65;12.02;;;18.70;99.90;;;;;;2054309;28;20031;-69
2021/06/15 03:26:08;;;;;;;14.32;10.80;;;18.70;99.90;;;;;;2053713;28;20066;-69
2021/06/15 03:27:12;;;;;;;15.02;10.75;;;18.70;99.90;;;;;;2057163;28;20035;-69
2021/06/15 03:28:20;;;;;;;13.65;11.10;;;18.70;99.90;;;;;;2061197;28;20046;-69
2021/06/15 03:29:24;;;;;;;12.13;9.88;;;18.80;99.90;;;;;;2054112;28;20156;-69
2021/06/15 03:30:26;;;;;;;14.50;12.48;;;18.80;99.90;;;;;;2052351;28;20033;-69
2021/06/15 03:31:33;;;;;;;14.60;12.68;;;18.70;99.90;;;;;;2045994;28;20441;-69
2021/06/15 03:32:41;;;;;;;17.30;13.18;;;18.80;99.90;;;;;;2046056;28;20142;-69
2021/06/15 03:33:45;;;;;;;13.98;11.73;;;18.80;99.90;;;;;;2062341;28;20034;-69
2021/06/15 03:34:50;;;;;;;15.65;12.07;;;18.80;99.90;;;;;;2068769;28;20091;-69
2021/06/15 03:35:58;;;;;;;16.75;12.60;;;18.80;99.90;;;;;;2054197;28;20095;-69
2021/06/15 03:37:00;;;;;;;12.63;11.35;;;18.80;99.90;;;;;;2058951;28;20034;-69
2021/06/15 03:38:03;;;;;;;19.75;11.57;;;18.80;99.90;;;;;;2061734;28;20075;-69
2021/06/15 03:39:05;;;;;;;18.38;13.73;;;18.70;99.90;;;;;;2052310;28;20031;-69
2021/06/15 03:40:07;;;;;;;18.17;12.57;;;18.80;99.90;;;;;;2053853;28;20059;-69
2021/06/15 03:41:10;;;;;;;16.23;14.20;;;18.80;99.90;;;;;;2054299;28;20027;-69
2021/06/15 03:42:15;;;;;;;17.92;13.52;;;18.80;99.90;;;;;;2053279;28;20030;-69
2021/06/15 03:43:19;;;;;;;15.30;12.50;;;18.80;99.90;;;;;;2054217;28;20031;-69
2021/06/15 03:44:21;;;;;;;16.63;12.32;;;18.80;99.90;;;;;;2053134;28;20031;-69
2021/06/15 03:45:26;;;;;;;15.65;12.93;;;18.80;99.90;;;;;;2049649;28;20026;-69
2021/06/15 03:46:30;;;;;;;15.02;12.20;;;18.80;99.90;;;;;;2045985;28;20363;-69
2021/06/15 03:47:34;;;;;;;18.10;13.88;;;18.80;99.90;;;;;;2046083;29;20034;-69
2021/06/15 03:48:40;;;;;;;15.55;13.10;;;18.80;99.90;;;;;;2046066;29;20027;-69
2021/06/15 03:49:43;;;;;;;19.95;14.63;;;18.80;99.90;;;;;;2046088;28;20027;-69
2021/06/15 03:50:43;;;;;;;16.73;12.50;;;18.80;99.90;;;;;;2047545;28;20749;-69
2021/06/15 03:51:52;;;;;;;15.73;13.27;;;18.80;99.90;;;;;;2046963;28;20050;-69
2021/06/15 03:52:55;;;;;;;20.00;14.65;;;18.80;99.90;;;;;;2047222;28;20055;-69
2021/06/15 03:54:08;;;;;;;18.90;14.82;;;18.80;99.90;;;;;;2049874;28;20039;-69
2021/06/15 03:55:13;;;;;;;17.45;14.23;;;18.80;99.90;;;;;;2055189;28;20045;-69
2021/06/15 03:56:15;;;;;;;17.70;14.68;;;18.70;99.90;;;;;;2047818;28;20106;-69
2021/06/15 03:57:16;;;;;;;18.02;14.57;;;18.70;99.90;;;;;;2055249;28;20023;-69
2021/06/15 03:58:18;;;;;;;15.68;13.38;;;18.80;99.90;;;;;;2055439;28;20556;-69
2021/06/15 03:59:22;;;;;;;19.38;13.68;;;18.70;99.90;;;;;;2055158;28;20345;-69
2021/06/15 04:00:24;;;;;;;18.15;12.75;;;18.80;99.90;;;;;;2055427;28;20023;-69
2021/06/15 04:01:26;;;;;;;16.52;13.05;;;18.70;99.90;;;;;;2054779;28;20026;-69
2021/06/15 04:02:28;;;;;;;18.75;14.07;;;18.80;99.90;;;;;;2054936;28;20023;-69
2021/06/15 04:03:32;;;;;;;13.65;11.40;;;18.70;99.90;;;;;;2055072;28;20367;-69
2021/06/15 04:04:39;;;;;;;15.00;13.40;;;18.70;99.90;;;;;;2052653;28;20050;-69
2021/06/15 04:05:40;;;;;;;15.27;12.52;;;18.80;99.90;;;;;;2047243;28;20099;-69
2021/06/15 04:06:50;;;;;;;17.75;13.07;;;18.80;99.90;;;;;;2046658;28;20031;-69
2021/06/15 04:07:52;;;;;;;17.65;13.68;;;18.80;99.90;;;;;;2046514;29;20032;-69
2021/06/15 04:09:00;;;;;;;17.33;12.77;;;18.80;99.90;;;;;;2047476;28;20039;-69
2021/06/15 04:10:04;;;;;;;19.80;12.73;;;18.80;99.90;;;;;;2047278;29;20063;-69
2021/06/15 04:11:06;;;;;;;14.48;12.55;;;18.80;99.90;;;;;;2047346;28;20088;-69
2021/06/15 04:12:09;;;;;;;16.40;12.30;;;18.80;99.90;;;;;;2046735;29;20031;-69
2021/06/15 04:13:11;;;;;;;17.85;12.45;;;18.90;99.90;;;;;;2047132;28;20031;-69
2021/06/15 04:14:12;;;;;;;18.05;11.73;;;18.90;99.90;;;;;;2050795;28;20027;-69
2021/06/15 04:15:14;;;;;;;16.70;12.25;;;18.90;99.90;;;;;;2055016;28;20386;-69
2021/06/15 04:16:15;;;;;;;13.98;11.27;;;18.90;99.90;;;;;;2055252;28;20045;-69
2021/06/15 04:17:24;;;;;;;13.52;11.07;;;18.90;99.90;;;;;;2055246;28;20391;-69
2021/06/15 04:18:27;;;;;;;15.63;13.30;;;18.90;99.90;;;;;;2055248;28;20085;-69
2021/06/15 04:19:36;;;;;;;19.30;12.23;;;18.90;99.90;;;;;;2055150;28;20031;-69
2021/06/15 04:20:40;;;;;;;17.35;10.80;;;19.00;99.90;;;;;;2055163;28;20047;-69
2021/06/15 04:21:44;;;;;;;13.10;11.18;;;19.00;99.90;;;;;;2054738;28;20210;-69
2021/06/15 04:22:46;;;;;;;14.45;12.18;;;19.10;99.90;;;;;;2055251;28;20081;-69
2021/06/15 04:23:57;;;;;;;21.98;12.23;;;19.10;99.90;;;;;;2054962;28;20026;-69
2021/06/15 04:24:58;;;;;;;;;;;19.20;99.90;;;;;;2055632;28;20023;-69
2021/06/15 04:25:59;;;;;;;20.20;11.07;;;19.20;99.90;;;;;;2054794;28;19913;-69
2021/06/15 04:27:00;;;;;;;11.85;10.52;;;19.30;99.90;;;;;;2055506;28;20070;-69
2021/06/15 04:28:01;;;;;;;15.55;10.73;;;19.30;99.90;;;;;;2054889;28;20038;-70
2021/06/15 04:29:05;;;;;;;14.57;11.43;;;19.40;99.90;;;;;;2055493;28;20061;-69
2021/06/15 04:30:07;;;;;;;13.40;11.20;;;19.40;99.90;;;;;;2063038;28;20494;-69
2021/06/15 04:31:10;;;;;;;18.90;11.80;;;19.50;99.90;;;;;;2075241;28;20078;-69
2021/06/15 04:32:11;;;;;;;15.15;10.20;;;19.50;99.90;;;;;;2067810;28;20366;-69
2021/06/15 04:33:16;;;;;;;12.18;10.80;;;19.50;99.90;;;;;;2061320;28;20080;-69
2021/06/15 04:34:21;;;;;;;15.63;10.85;;;19.60;99.90;;;;;;2067382;28;20510;-69
2021/06/15 04:35:32;;;;;;;13.68;10.80;;;19.60;99.90;;;;;;2054802;28;20479;-69
2021/06/15 04:36:34;;;;;;;13.20;9.63;;;19.60;99.90;;;;;;2075129;28;20104;-69
2021/06/15 04:37:36;;;;;;;11.20;9.30;;;19.60;99.90;;;;;;2078474;28;20020;-69
2021/06/15 04:39:01;;;;;;;12.68;9.52;;;19.70;99.90;;;;;;2085487;28;20028;-69
2021/06/15 04:40:17;;;;;;;13.93;9.55;;;19.70;99.90;;;;;;2055138;28;20050;-70
2021/06/15 04:41:23;;;;;;;13.38;9.77;;;19.70;99.90;;;;;;2047258;28;20031;-70
2021/06/15 04:42:41;;;;;;;14.93;11.80;;;19.80;99.90;;;;;;2072549;28;20026;-69
2021/06/15 04:43:50;;;;;;;12.75;10.02;;;19.90;99.90;;;;;;2058064;28;20011;-69
2021/06/15 04:44:52;;;;;;;14.88;10.18;;;19.90;99.90;;;;;;2061546;28;20028;-69
2021/06/15 04:45:58;;;;;;;13.48;10.65;;;19.90;99.90;;;;;;2061385;28;20113;-69
2021/06/15 04:47:04;;;;;;;12.90;10.57;;;20.00;99.90;;;;;;2059412;28;20077;-69
2021/06/15 04:48:08;;;;;;;15.05;9.95;;;20.00;99.90;;;;;;2054441;28;20027;-69
2021/06/15 04:49:18;;;;;;;11.15;8.77;;;20.10;99.90;;;;;;2055606;28;20124;-70
2021/06/15 04:50:26;;;;;;;13.27;9.93;;;20.10;99.90;;;;;;2057850;28;20031;-69
2021/06/15 04:51:28;;;;;;;12.45;9.77;;;20.20;99.90;;;;;;2046640;28;20028;-70
2021/06/15 04:52:30;;;;;;;12.65;10.38;;;20.20;99.90;;;;;;2067207;28;20022;-69
2021/06/15 04:53:35;;;;;;;20.48;11.18;;;20.20;99.90;;;;;;2048559;28;20035;-69
2021/06/15 04:54:40;;;;;;;10.27;9.20;;;20.20;99.90;;;;;;2050971;28;20080;-69
2021/06/15 04:55:42;;;;;;;16.92;10.35;;;20.20;99.90;;;;;;2050456;28;20022;-69
2021/06/15 04:56:45;;;;;;;16.23;10.55;;;20.30;99.90;;;;;;2050468;28;20019;-69
2021/06/15 04:57:47;;;;;;;14.68;10.80;;;20.30;99.90;;;;;;2048753;28;20031;-69
2021/06/15 04:58:48;;;;;;;13.90;9.30;;;20.30;99.90;;;;;;2050283;28;20016;-69
2021/06/15 04:59:52;;;;;;;11.90;9.35;;;20.30;99.90;;;;;;2048341;28;20467;-69
2021/06/15 05:00:53;;;;;;;19.85;10.10;;;20.30;99.90;;;;;;2048436;28;20455;-69
2021/06/15 05:01:53;;;;;;;15.05;9.88;;;20.30;99.90;;;;;;2046601;28;20363;-70
2021/06/15 05:02:55;;;;;;;17.90;10.90;;;20.30;99.90;;;;;;2050252;28;20054;-70
2021/06/15 05:03:56;;;;;;;13.15;9.52;;;20.30;99.90;;;;;;2055699;28;20022;-69
2021/06/15 05:04:57;;;;;;;12.30;10.23;;;20.40;99.90;;;;;;2053994;28;20027;-69
2021/06/15 05:06:06;;;;;;;12.70;10.60;;;20.40;99.90;;;;;;2055296;28;20027;-69
2021/06/15 05:07:07;;;;;;;15.93;10.15;;;20.40;99.90;;;;;;2054614;28;20030;-69
2021/06/15 05:08:14;;;;;;;12.68;10.65;;;20.30;99.90;;;;;;2055801;28;20026;-69
2021/06/15 05:09:16;;;;;;;12.82;10.27;;;20.30;99.90;;;;;;2053474;28;20030;-69
2021/06/15 05:10:20;;;;;;;13.13;11.30;;;20.30;99.90;;;;;;2055617;28;20698;-70
2021/06/15 05:11:22;;;;;;;16.35;10.75;;;20.30;99.90;;;;;;2054990;28;20062;-71
2021/06/15 05:12:24;;;;;;;11.82;10.32;;;20.20;99.90;;;;;;2055133;28;20029;-70
2021/06/15 05:13:26;;;;;;;13.90;10.15;;;20.30;99.90;;;;;;2060486;28;20065;-71
2021/06/15 05:14:29;;;;;;;11.02;9.40;;;20.20;99.90;;;;;;2057630;28;20537;-69
2021/06/15 05:15:31;;;;;;;15.30;10.18;;;20.30;99.90;;;;;;2055925;28;20035;-70
2021/06/15 05:16:34;;;;;;;12.00;9.52;;;20.30;99.90;;;;;;2057160;28;20113;-69
2021/06/15 05:17:35;;;;;;;15.85;10.07;;;20.30;99.90;;;;;;2063284;28;20394;-70
2021/06/15 05:18:37;;;;;;;15.55;10.13;;;20.20;99.90;;;;;;2059085;28;20026;-69
2021/06/15 05:19:41;;;;;;;13.40;9.98;;;20.20;99.90;;;;;;2057086;28;20019;-69
2021/06/15 05:20:42;;;;;;;14.65;9.55;;;20.30;99.90;;;;;;2054768;28;20352;-69
2021/06/15 05:21:54;;;;;;;15.43;9.63;;;20.30;99.90;;;;;;2051279;28;20023;-69
2021/06/15 05:23:02;;;;;;;10.73;9.35;;;20.30;99.90;;;;;;2059711;28;20099;-69
2021/06/15 05:24:05;;;;;;;10.82;8.40;;;20.30;99.90;;;;;;2074427;28;20035;-69
2021/06/15 05:25:09;;;;;;;12.95;9.63;;;20.40;99.90;;;;;;2059438;28;20453;-69
2021/06/15 05:26:11;;;;;;;14.63;8.48;;;20.40;99.90;;;;;;2060381;28;20038;-69
2021/06/15 05:27:13;;;;;;;11.48;8.80;;;20.50;99.90;;;;;;2063087;28;20014;-70
2021/06/15 05:28:13;;;;;;;12.50;9.10;;;20.50;99.90;;;;;;2056751;28;20043;-69
2021/06/15 05:29:14;;;;;;;12.85;9.35;;;20.60;99.90;;;;;;2063075;28;20030;-69
2021/06/15 05:30:15;;;;;;;10.50;8.60;;;20.60;99.90;;;;;;2054077;28;20031;-70
2021/06/15 05:31:15;;;;;;;13.02;10.65;;;20.70;99.90;;;;;;2054345;28;20034;-69
2021/06/15 05:32:16;;;;;;;12.40;10.32;;;20.80;99.90;;;;;;2053504;28;20026;-69
2021/06/15 05:33:17;;;;;;;12.48;9.50;;;20.80;99.90;;;;;;2054579;28;20398;-70